Detalii statie UNIVERSITATEA AGRICOLA IASI [0000198B]

Toti senzorii

Date Temperatura solului [C]Precipitatii [mm]Voltaj baterie [mV]HC Air temperature [C]HC Relative humidity [%]Punctul de roua [C]
medieminmaxsumaultimamedieminmaxmediemediemin
2019-04-19 20:00:00 8.4 8.2 8.7 1.4 6932 7.54 6.74 9.07 100 7.4 6.7
2019-04-19 21:00:00 8.2 8.1 8.3 0 6914 6.51 6.2 6.86 100 6.4 6.2
2019-04-19 22:00:00 8 8 8.2 0 6904 6.08 5.89 6.21 100 6 5.8
2019-04-19 23:00:00 7.9 7.8 8.1 0 6904 5.71 5.32 6 100 5.6 5.3
2019-04-20 00:00:00 7.7 7.7 8 0 6884 5.57 5.1 5.96 100 5.5 5.1
2019-04-20 01:00:00 7.6 7.5 7.9 0 6884 5.25 4.8 5.57 100 5.2 4.8
2019-04-20 02:00:00 7.4 7.3 7.6 0 6884 4.45 4.22 4.73 100 4.4 4.2
2019-04-20 03:00:00 7.1 7 7.3 0 6874 3.39 2.48 4.48 100 3.3 2.4
2019-04-20 04:00:00 6.9 6.8 7 0 6874 2.01 1.21 3.27 100 1.9 1.2
2019-04-20 05:00:00 6.6 6.5 6.8 0.2 6844 1.21 0.09 2.4 100 1.1 0
2019-04-20 06:00:00 6.5 6.4 6.7 0 6894 0.22 -0.32 1.14 100 0.2 -0.2
2019-04-20 07:00:00 6.3 6.2 6.5 0 7342 1.07 -0.15 2.69 100 1 0
2019-04-20 08:00:00 6.4 6.3 6.6 0 7342 4.98 3.51 6.8 100 4.9 3.5
2019-04-20 09:00:00 6.7 6.4 6.9 0 7332 7.19 6.42 8.38 100 7.1 6.4
2019-04-20 10:00:00 7 6.9 7.3 0 7332 10.07 8.53 11.16 99.94 10 8.5
2019-04-20 11:00:00 7.3 7.2 7.5 0 7324 11.99 11.29 12.85 85.57 9.4 6.9
2019-04-20 12:00:00 7.5 7.4 7.7 0 7166 13.02 12.16 13.5 67.54 7 5.9
2019-04-20 13:00:00 7.7 7.5 7.9 0 7314 12.64 12.16 13.7 64.9 6 4.8
2019-04-20 14:00:00 7.9 7.8 8 0 7332 12.85 12.34 14.19 66.29 6.5 5.4
2019-04-20 15:00:00 8 7.9 8.3 0 7158 13.83 13.14 14.6 60.54 6.2 4.8
2019-04-20 16:00:00 8.1 8.1 8.3 0 7158 13.27 12.93 14.06 62.44 6.1 5.3
2019-04-20 17:00:00 8.4 8.2 8.6 0 7314 14.24 13.58 14.96 58.1 5.9 5.2
2019-04-20 18:00:00 8.5 8.5 8.6 0 7304 13.48 13.2 13.75 59.71 5.6 5.1
2019-04-20 19:00:00 8.4 8.3 8.6 0 6972 12.46 12.1 13.01 63.17 5.5 4.8
2019-04-20 20:00:00 8.2 8 8.4 0 6932 10.24 8.36 12.09 76.24 6 5
2019-04-20 21:00:00 7.9 7.7 8.1 0 6922 7.63 6.72 8.54 89.21 5.8 5.5
2019-04-20 22:00:00 7.5 7.4 7.7 0 6904 5.38 4.73 6.69 99.65 5.2 4.7
2019-04-20 23:00:00 7.2 7 7.4 0 6904 4.47 3.72 5.16 100 4.4 3.7
2019-04-21 00:00:00 7 6.9 7.2 0 6874 3.37 2.62 4.26 100 3.3 2.6
2019-04-21 01:00:00 6.8 6.6 6.9 0 6864 2.62 1.9 3.2 100 2.5 1.9
2019-04-21 02:00:00 6.6 6.4 6.7 0 6874 2.14 1.66 2.49 100 2.1 1.6
2019-04-21 03:00:00 6.3 6.1 6.4 0 6864 2.04 1.61 2.57 100 2 1.6
2019-04-21 04:00:00 6.2 6.1 6.3 0 6864 1.2 0.58 1.89 100 1.1 0.5
2019-04-21 05:00:00 5.9 5.9 6.1 0 6854 1.04 0.54 1.63 100 1 0.5
2019-04-21 06:00:00 5.8 5.7 6 0 6904 2.08 1.17 2.83 100 2 1.1
2019-04-21 07:00:00 5.8 5.8 6.1 0 7254 3.47 2.35 4.72 100 3.4 2.3
2019-04-21 08:00:00 6.1 5.9 6.4 0 7324 6.99 4.67 9.08 100 6.9 4.6
2019-04-21 09:00:00 6.5 6.4 6.8 0 7332 11.04 8.89 13.05 91.45 9.5 7.2
2019-04-21 10:00:00 7 6.8 7.1 0 7324 14.24 13.15 15.28 67.32 8 6.6
2019-04-21 11:00:00 7.4 7.2 7.6 0 7324 15.23 14.89 15.73 59.63 7.2 6
2019-04-21 12:00:00 7.8 7.7 8.1 0 7324 16.21 15.6 16.93 55.75 7.2 5.6
2019-04-21 13:00:00 8.3 7.9 8.7 0 7314 16.76 15.63 18.02 55.01 7.5 6.2
2019-04-21 14:00:00 8.8 8.6 9.2 0 7324 17.59 17.03 17.93 54.7 8.2 7
2019-04-21 15:00:00 9.3 9.1 9.6 0 7246 17.59 16.84 18.18 53.25 7.7 6.3
2019-04-21 16:00:00 9.6 9.5 9.9 0 7206 16.86 16.46 17.46 53.99 7.3 6.4
2019-04-21 17:00:00 9.9 9.7 10 0 7108 16.34 16 16.93 56.3 7.4 6.5
2019-04-21 18:00:00 9.9 9.9 10 0 7010 15.35 14.98 15.8 59.08 7.2 6.5
2019-04-21 19:00:00 9.9 9.8 10.1 0 6932 14.33 13.84 14.81 61.83 6.9 6.4